sensor_id;sensor_type;location;lat;lon;timestamp;P1;durP1;ratioP1;P2;durP2;ratioP2
8665;SDS011;4370;48.916;8.380;2023-06-05T00:00:22;2.23;;;2.03;;
8665;SDS011;4370;48.916;8.380;2023-06-05T00:02:47;2.97;;;2.47;;
8665;SDS011;4370;48.916;8.380;2023-06-05T00:05:14;3.83;;;2.37;;
8665;SDS011;4370;48.916;8.380;2023-06-05T00:07:43;3.63;;;2.30;;
8665;SDS011;4370;48.916;8.380;2023-06-05T00:10:09;2.30;;;2.10;;
8665;SDS011;4370;48.916;8.380;2023-06-05T00:12:36;3.87;;;2.17;;
8665;SDS011;4370;48.916;8.380;2023-06-05T00:15:03;2.70;;;2.23;;
8665;SDS011;4370;48.916;8.380;2023-06-05T00:17:31;3.47;;;1.90;;
8665;SDS011;4370;48.916;8.380;2023-06-05T00:20:03;5.03;;;2.20;;
8665;SDS011;4370;48.916;8.380;2023-06-05T00:22:30;3.03;;;2.10;;
8665;SDS011;4370;48.916;8.380;2023-06-05T00:24:58;5.27;;;2.10;;
8665;SDS011;4370;48.916;8.380;2023-06-05T00:27:24;4.43;;;2.27;;
8665;SDS011;4370;48.916;8.380;2023-06-05T00:29:50;2.80;;;2.50;;
8665;SDS011;4370;48.916;8.380;2023-06-05T00:32:16;2.80;;;2.40;;
8665;SDS011;4370;48.916;8.380;2023-06-05T00:34:41;3.40;;;2.73;;
8665;SDS011;4370;48.916;8.380;2023-06-05T00:37:08;2.23;;;2.03;;
8665;SDS011;4370;48.916;8.380;2023-06-05T00:39:34;2.97;;;2.27;;
8665;SDS011;4370;48.916;8.380;2023-06-05T00:42:00;3.33;;;2.60;;
8665;SDS011;4370;48.916;8.380;2023-06-05T00:44:26;3.33;;;2.70;;
8665;SDS011;4370;48.916;8.380;2023-06-05T00:46:52;2.77;;;2.33;;
8665;SDS011;4370;48.916;8.380;2023-06-05T00:49:18;3.20;;;2.50;;
8665;SDS011;4370;48.916;8.380;2023-06-05T00:51:46;3.33;;;2.40;;
8665;SDS011;4370;48.916;8.380;2023-06-05T00:54:12;2.97;;;2.60;;
8665;SDS011;4370;48.916;8.380;2023-06-05T00:56:39;4.87;;;2.87;;
8665;SDS011;4370;48.916;8.380;2023-06-05T00:59:07;5.00;;;3.10;;
8665;SDS011;4370;48.916;8.380;2023-06-05T01:01:35;4.37;;;2.70;;
8665;SDS011;4370;48.916;8.380;2023-06-05T01:04:04;4.53;;;2.80;;
8665;SDS011;4370;48.916;8.380;2023-06-05T01:06:31;2.97;;;2.30;;
8665;SDS011;4370;48.916;8.380;2023-06-05T01:08:59;3.10;;;2.40;;
8665;SDS011;4370;48.916;8.380;2023-06-05T01:13:54;3.80;;;2.67;;
8665;SDS011;4370;48.916;8.380;2023-06-05T01:16:32;4.93;;;2.77;;
8665;SDS011;4370;48.916;8.380;2023-06-05T01:18:59;3.13;;;2.63;;
8665;SDS011;4370;48.916;8.380;2023-06-05T01:21:31;3.30;;;2.23;;
8665;SDS011;4370;48.916;8.380;2023-06-05T01:24:02;3.07;;;2.67;;
8665;SDS011;4370;48.916;8.380;2023-06-05T01:26:33;2.97;;;2.23;;
8665;SDS011;4370;48.916;8.380;2023-06-05T01:29:53;2.70;;;2.23;;
8665;SDS011;4370;48.916;8.380;2023-06-05T01:32:34;4.27;;;2.20;;
8665;SDS011;4370;48.916;8.380;2023-06-05T01:35:20;6.00;;;2.70;;
8665;SDS011;4370;48.916;8.380;2023-06-05T01:37:53;5.10;;;4.40;;
8665;SDS011;4370;48.916;8.380;2023-06-05T01:40:20;6.00;;;4.63;;
8665;SDS011;4370;48.916;8.380;2023-06-05T01:42:48;6.80;;;3.93;;
8665;SDS011;4370;48.916;8.380;2023-06-05T01:45:14;6.43;;;5.40;;
8665;SDS011;4370;48.916;8.380;2023-06-05T01:47:44;6.87;;;4.33;;
8665;SDS011;4370;48.916;8.380;2023-06-05T01:50:13;6.50;;;4.63;;
8665;SDS011;4370;48.916;8.380;2023-06-05T01:52:43;7.93;;;5.50;;
8665;SDS011;4370;48.916;8.380;2023-06-05T01:55:16;8.23;;;4.53;;
8665;SDS011;4370;48.916;8.380;2023-06-05T01:57:45;9.20;;;4.33;;
8665;SDS011;4370;48.916;8.380;2023-06-05T02:00:13;4.60;;;3.17;;
8665;SDS011;4370;48.916;8.380;2023-06-05T02:02:40;6.73;;;2.60;;
8665;SDS011;4370;48.916;8.380;2023-06-05T02:05:07;4.87;;;3.30;;
8665;SDS011;4370;48.916;8.380;2023-06-05T02:07:33;3.63;;;2.70;;
8665;SDS011;4370;48.916;8.380;2023-06-05T02:10:01;4.37;;;3.00;;
8665;SDS011;4370;48.916;8.380;2023-06-05T02:12:27;7.60;;;4.10;;
8665;SDS011;4370;48.916;8.380;2023-06-05T02:14:54;9.50;;;4.20;;
8665;SDS011;4370;48.916;8.380;2023-06-05T02:17:21;3.90;;;3.40;;
8665;SDS011;4370;48.916;8.380;2023-06-05T02:19:49;3.60;;;3.03;;
8665;SDS011;4370;48.916;8.380;2023-06-05T02:22:15;4.63;;;2.83;;
8665;SDS011;4370;48.916;8.380;2023-06-05T02:24:41;4.73;;;3.03;;
8665;SDS011;4370;48.916;8.380;2023-06-05T02:27:07;4.23;;;3.07;;
8665;SDS011;4370;48.916;8.380;2023-06-05T02:29:39;6.33;;;3.53;;
8665;SDS011;4370;48.916;8.380;2023-06-05T02:32:05;5.33;;;2.80;;
8665;SDS011;4370;48.916;8.380;2023-06-05T02:34:31;4.83;;;3.30;;
8665;SDS011;4370;48.916;8.380;2023-06-05T02:36:57;4.30;;;2.80;;
8665;SDS011;4370;48.916;8.380;2023-06-05T02:39:24;5.27;;;3.10;;
8665;SDS011;4370;48.916;8.380;2023-06-05T02:41:50;3.33;;;2.80;;
8665;SDS011;4370;48.916;8.380;2023-06-05T02:44:16;3.87;;;2.77;;
8665;SDS011;4370;48.916;8.380;2023-06-05T02:46:42;4.03;;;2.77;;
8665;SDS011;4370;48.916;8.380;2023-06-05T02:49:08;4.83;;;2.87;;
8665;SDS011;4370;48.916;8.380;2023-06-05T02:51:34;3.80;;;2.80;;
8665;SDS011;4370;48.916;8.380;2023-06-05T02:54:00;4.93;;;2.70;;
8665;SDS011;4370;48.916;8.380;2023-06-05T02:56:26;4.40;;;2.73;;
8665;SDS011;4370;48.916;8.380;2023-06-05T02:58:52;3.47;;;2.73;;
8665;SDS011;4370;48.916;8.380;2023-06-05T03:01:18;3.63;;;2.70;;
8665;SDS011;4370;48.916;8.380;2023-06-05T03:03:46;2.60;;;2.40;;
8665;SDS011;4370;48.916;8.380;2023-06-05T03:06:14;4.17;;;2.80;;
8665;SDS011;4370;48.916;8.380;2023-06-05T03:08:42;4.27;;;2.67;;
8665;SDS011;4370;48.916;8.380;2023-06-05T03:11:08;3.37;;;2.80;;
8665;SDS011;4370;48.916;8.380;2023-06-05T03:13:34;3.07;;;2.50;;
8665;SDS011;4370;48.916;8.380;2023-06-05T03:16:00;4.47;;;2.40;;
8665;SDS011;4370;48.916;8.380;2023-06-05T03:18:29;3.73;;;2.47;;
8665;SDS011;4370;48.916;8.380;2023-06-05T03:20:56;3.40;;;2.47;;
8665;SDS011;4370;48.916;8.380;2023-06-05T03:23:22;6.13;;;2.80;;
8665;SDS011;4370;48.916;8.380;2023-06-05T03:25:52;3.57;;;2.50;;
8665;SDS011;4370;48.916;8.380;2023-06-05T03:28:19;3.50;;;2.40;;
8665;SDS011;4370;48.916;8.380;2023-06-05T03:30:46;3.93;;;2.50;;
8665;SDS011;4370;48.916;8.380;2023-06-05T03:33:12;3.87;;;2.60;;
8665;SDS011;4370;48.916;8.380;2023-06-05T03:35:48;5.37;;;2.90;;
8665;SDS011;4370;48.916;8.380;2023-06-05T03:38:14;3.77;;;2.40;;
8665;SDS011;4370;48.916;8.380;2023-06-05T03:40:41;3.60;;;3.07;;
8665;SDS011;4370;48.916;8.380;2023-06-05T03:43:06;3.87;;;2.40;;
8665;SDS011;4370;48.916;8.380;2023-06-05T03:45:36;4.50;;;3.00;;
8665;SDS011;4370;48.916;8.380;2023-06-05T03:48:04;3.80;;;2.67;;
8665;SDS011;4370;48.916;8.380;2023-06-05T03:50:30;3.43;;;2.60;;
8665;SDS011;4370;48.916;8.380;2023-06-05T03:52:58;6.60;;;2.50;;
8665;SDS011;4370;48.916;8.380;2023-06-05T03:55:29;4.60;;;2.60;;
8665;SDS011;4370;48.916;8.380;2023-06-05T03:58:10;5.13;;;2.67;;
8665;SDS011;4370;48.916;8.380;2023-06-05T04:00:41;4.20;;;2.57;;
8665;SDS011;4370;48.916;8.380;2023-06-05T04:03:08;2.73;;;2.20;;
8665;SDS011;4370;48.916;8.380;2023-06-05T04:05:38;3.90;;;2.63;;
8665;SDS011;4370;48.916;8.380;2023-06-05T04:08:05;3.10;;;2.40;;
8665;SDS011;4370;48.916;8.380;2023-06-05T04:10:35;3.97;;;2.50;;
8665;SDS011;4370;48.916;8.380;2023-06-05T04:13:01;2.83;;;2.40;;
8665;SDS011;4370;48.916;8.380;2023-06-05T04:15:31;4.60;;;2.40;;
8665;SDS011;4370;48.916;8.380;2023-06-05T04:17:58;2.93;;;2.23;;
8665;SDS011;4370;48.916;8.380;2023-06-05T04:20:24;4.87;;;2.50;;
8665;SDS011;4370;48.916;8.380;2023-06-05T04:22:51;6.20;;;2.73;;
8665;SDS011;4370;48.916;8.380;2023-06-05T04:25:18;3.13;;;2.23;;
8665;SDS011;4370;48.916;8.380;2023-06-05T04:27:45;5.13;;;2.43;;
8665;SDS011;4370;48.916;8.380;2023-06-05T04:30:13;4.87;;;2.23;;
8665;SDS011;4370;48.916;8.380;2023-06-05T04:32:39;5.23;;;2.40;;
8665;SDS011;4370;48.916;8.380;2023-06-05T04:35:07;2.80;;;2.23;;
8665;SDS011;4370;48.916;8.380;2023-06-05T04:37:36;5.07;;;2.30;;
8665;SDS011;4370;48.916;8.380;2023-06-05T04:40:03;4.63;;;2.47;;
8665;SDS011;4370;48.916;8.380;2023-06-05T04:42:35;4.37;;;2.43;;
8665;SDS011;4370;48.916;8.380;2023-06-05T04:45:02;4.13;;;2.30;;
8665;SDS011;4370;48.916;8.380;2023-06-05T04:47:30;8.10;;;2.60;;
8665;SDS011;4370;48.916;8.380;2023-06-05T04:49:58;2.53;;;2.30;;
8665;SDS011;4370;48.916;8.380;2023-06-05T04:52:24;3.17;;;2.47;;
8665;SDS011;4370;48.916;8.380;2023-06-05T04:54:51;4.00;;;2.60;;
8665;SDS011;4370;48.916;8.380;2023-06-05T04:57:17;3.20;;;2.33;;
8665;SDS011;4370;48.916;8.380;2023-06-05T04:59:44;5.53;;;2.60;;
8665;SDS011;4370;48.916;8.380;2023-06-05T05:02:10;4.30;;;2.67;;
8665;SDS011;4370;48.916;8.380;2023-06-05T05:04:36;2.50;;;2.30;;
8665;SDS011;4370;48.916;8.380;2023-06-05T05:07:02;2.60;;;2.40;;
8665;SDS011;4370;48.916;8.380;2023-06-05T05:09:28;3.17;;;2.00;;
8665;SDS011;4370;48.916;8.380;2023-06-05T05:11:55;3.47;;;2.50;;
8665;SDS011;4370;48.916;8.380;2023-06-05T05:14:23;2.87;;;2.50;;
8665;SDS011;4370;48.916;8.380;2023-06-05T05:16:52;2.80;;;2.13;;
8665;SDS011;4370;48.916;8.380;2023-06-05T05:19:18;5.20;;;2.53;;
8665;SDS011;4370;48.916;8.380;2023-06-05T05:21:45;2.73;;;2.40;;
8665;SDS011;4370;48.916;8.380;2023-06-05T05:24:12;2.73;;;2.23;;
8665;SDS011;4370;48.916;8.380;2023-06-05T05:26:38;4.53;;;2.13;;
8665;SDS011;4370;48.916;8.380;2023-06-05T05:29:07;4.23;;;2.50;;
8665;SDS011;4370;48.916;8.380;2023-06-05T05:31:33;3.97;;;2.40;;
8665;SDS011;4370;48.916;8.380;2023-06-05T05:34:00;2.70;;;2.10;;
8665;SDS011;4370;48.916;8.380;2023-06-05T05:36:26;4.03;;;2.50;;
8665;SDS011;4370;48.916;8.380;2023-06-05T05:38:53;4.50;;;2.40;;
8665;SDS011;4370;48.916;8.380;2023-06-05T05:41:18;4.70;;;2.43;;
8665;SDS011;4370;48.916;8.380;2023-06-05T05:43:46;2.90;;;2.40;;
8665;SDS011;4370;48.916;8.380;2023-06-05T05:46:12;4.20;;;2.77;;
8665;SDS011;4370;48.916;8.380;2023-06-05T05:48:38;3.23;;;2.13;;
8665;SDS011;4370;48.916;8.380;2023-06-05T05:51:05;2.17;;;1.90;;
8665;SDS011;4370;48.916;8.380;2023-06-05T05:53:31;5.37;;;2.20;;
8665;SDS011;4370;48.916;8.380;2023-06-05T05:55:57;3.73;;;2.40;;
8665;SDS011;4370;48.916;8.380;2023-06-05T05:58:25;2.53;;;2.17;;
8665;SDS011;4370;48.916;8.380;2023-06-05T06:00:51;3.63;;;2.30;;
8665;SDS011;4370;48.916;8.380;2023-06-05T06:03:17;5.27;;;2.40;;
8665;SDS011;4370;48.916;8.380;2023-06-05T06:05:44;4.23;;;2.40;;
8665;SDS011;4370;48.916;8.380;2023-06-05T06:08:11;5.70;;;2.10;;
8665;SDS011;4370;48.916;8.380;2023-06-05T06:10:37;2.88;;;2.38;;
8665;SDS011;4370;48.916;8.380;2023-06-05T06:13:04;2.47;;;2.28;;
8665;SDS011;4370;48.916;8.380;2023-06-05T06:15:31;7.60;;;2.50;;
8665;SDS011;4370;48.916;8.380;2023-06-05T06:17:56;2.45;;;2.20;;
8665;SDS011;4370;48.916;8.380;2023-06-05T06:20:22;2.33;;;2.00;;
8665;SDS011;4370;48.916;8.380;2023-06-05T06:22:48;5.43;;;2.30;;
8665;SDS011;4370;48.916;8.380;2023-06-05T06:25:14;2.95;;;2.00;;
8665;SDS011;4370;48.916;8.380;2023-06-05T06:27:42;4.28;;;2.40;;
8665;SDS011;4370;48.916;8.380;2023-06-05T06:30:10;3.35;;;2.10;;
8665;SDS011;4370;48.916;8.380;2023-06-05T06:32:37;2.10;;;1.90;;
8665;SDS011;4370;48.916;8.380;2023-06-05T06:35:03;2.90;;;2.20;;
8665;SDS011;4370;48.916;8.380;2023-06-05T06:37:31;3.38;;;2.33;;
8665;SDS011;4370;48.916;8.380;2023-06-05T06:39:56;3.85;;;2.10;;
8665;SDS011;4370;48.916;8.380;2023-06-05T06:42:33;5.20;;;1.90;;
8665;SDS011;4370;48.916;8.380;2023-06-05T06:44:59;1.90;;;1.77;;
8665;SDS011;4370;48.916;8.380;2023-06-05T06:47:25;4.90;;;2.30;;
8665;SDS011;4370;48.916;8.380;2023-06-05T06:49:51;5.82;;;2.00;;
8665;SDS011;4370;48.916;8.380;2023-06-05T06:52:18;4.82;;;2.08;;
8665;SDS011;4370;48.916;8.380;2023-06-05T06:54:45;2.88;;;2.08;;
8665;SDS011;4370;48.916;8.380;2023-06-05T06:57:11;2.90;;;2.30;;
8665;SDS011;4370;48.916;8.380;2023-06-05T06:59:37;5.32;;;2.40;;
8665;SDS011;4370;48.916;8.380;2023-06-05T07:05:27;5.07;;;2.00;;
8665;SDS011;4370;48.916;8.380;2023-06-05T07:07:53;2.58;;;2.13;;
8665;SDS011;4370;48.916;8.380;2023-06-05T07:10:25;2.55;;;2.03;;
8665;SDS011;4370;48.916;8.380;2023-06-05T07:12:51;4.75;;;2.10;;
8665;SDS011;4370;48.916;8.380;2023-06-05T07:15:17;2.95;;;2.30;;
8665;SDS011;4370;48.916;8.380;2023-06-05T07:17:43;2.85;;;2.00;;
8665;SDS011;4370;48.916;8.380;2023-06-05T07:20:09;3.55;;;2.10;;
8665;SDS011;4370;48.916;8.380;2023-06-05T07:22:35;2.40;;;1.80;;
8665;SDS011;4370;48.916;8.380;2023-06-05T07:25:01;2.85;;;1.73;;
8665;SDS011;4370;48.916;8.380;2023-06-05T07:27:28;5.45;;;1.88;;
8665;SDS011;4370;48.916;8.380;2023-06-05T07:29:54;4.90;;;2.03;;
8665;SDS011;4370;48.916;8.380;2023-06-05T07:32:21;3.75;;;2.00;;
8665;SDS011;4370;48.916;8.380;2023-06-05T07:34:47;3.38;;;2.00;;
8665;SDS011;4370;48.916;8.380;2023-06-05T07:37:13;4.90;;;2.20;;
8665;SDS011;4370;48.916;8.380;2023-06-05T07:39:39;4.85;;;2.35;;
8665;SDS011;4370;48.916;8.380;2023-06-05T07:42:05;4.13;;;2.10;;
8665;SDS011;4370;48.916;8.380;2023-06-05T07:44:31;4.18;;;2.33;;
8665;SDS011;4370;48.916;8.380;2023-06-05T07:46:57;2.80;;;2.05;;
8665;SDS011;4370;48.916;8.380;2023-06-05T07:49:23;3.65;;;2.05;;
8665;SDS011;4370;48.916;8.380;2023-06-05T07:51:49;2.72;;;1.92;;
8665;SDS011;4370;48.916;8.380;2023-06-05T07:54:16;3.90;;;1.92;;
8665;SDS011;4370;48.916;8.380;2023-06-05T07:56:42;5.75;;;2.08;;
8665;SDS011;4370;48.916;8.380;2023-06-05T07:59:08;7.35;;;2.20;;
8665;SDS011;4370;48.916;8.380;2023-06-05T08:01:34;5.22;;;2.15;;
8665;SDS011;4370;48.916;8.380;2023-06-05T08:04:01;2.65;;;1.90;;
8665;SDS011;4370;48.916;8.380;2023-06-05T08:06:28;5.72;;;2.10;;
8665;SDS011;4370;48.916;8.380;2023-06-05T08:08:54;3.33;;;1.92;;
8665;SDS011;4370;48.916;8.380;2023-06-05T08:11:20;2.47;;;1.98;;
8665;SDS011;4370;48.916;8.380;2023-06-05T08:13:47;3.40;;;2.03;;
8665;SDS011;4370;48.916;8.380;2023-06-05T08:16:13;2.25;;;2.03;;
8665;SDS011;4370;48.916;8.380;2023-06-05T08:18:40;5.00;;;2.05;;
8665;SDS011;4370;48.916;8.380;2023-06-05T08:21:06;2.08;;;1.85;;
8665;SDS011;4370;48.916;8.380;2023-06-05T08:23:32;5.25;;;2.00;;
8665;SDS011;4370;48.916;8.380;2023-06-05T08:25:58;5.70;;;2.30;;
8665;SDS011;4370;48.916;8.380;2023-06-05T08:28:24;2.85;;;2.00;;
8665;SDS011;4370;48.916;8.380;2023-06-05T08:30:50;2.75;;;2.20;;
8665;SDS011;4370;48.916;8.380;2023-06-05T08:33:17;5.03;;;2.17;;
8665;SDS011;4370;48.916;8.380;2023-06-05T08:35:43;4.03;;;2.17;;
8665;SDS011;4370;48.916;8.380;2023-06-05T08:38:08;5.43;;;2.17;;
8665;SDS011;4370;48.916;8.380;2023-06-05T08:40:34;6.97;;;2.40;;
8665;SDS011;4370;48.916;8.380;2023-06-05T08:43:01;4.93;;;2.38;;
8665;SDS011;4370;48.916;8.380;2023-06-05T08:45:27;4.43;;;2.40;;
8665;SDS011;4370;48.916;8.380;2023-06-05T08:47:59;2.63;;;2.15;;
8665;SDS011;4370;48.916;8.380;2023-06-05T08:50:29;4.03;;;2.28;;
8665;SDS011;4370;48.916;8.380;2023-06-05T08:52:58;4.60;;;2.08;;
8665;SDS011;4370;48.916;8.380;2023-06-05T08:55:26;4.20;;;2.28;;
8665;SDS011;4370;48.916;8.380;2023-06-05T08:57:53;5.05;;;2.17;;
8665;SDS011;4370;48.916;8.380;2023-06-05T09:00:18;5.10;;;2.50;;
8665;SDS011;4370;48.916;8.380;2023-06-05T09:02:45;3.70;;;2.27;;
8665;SDS011;4370;48.916;8.380;2023-06-05T09:05:14;4.03;;;2.43;;
8665;SDS011;4370;48.916;8.380;2023-06-05T09:07:40;3.20;;;2.30;;
8665;SDS011;4370;48.916;8.380;2023-06-05T09:10:06;4.53;;;2.50;;
8665;SDS011;4370;48.916;8.380;2023-06-05T09:12:52;3.20;;;2.40;;
8665;SDS011;4370;48.916;8.380;2023-06-05T09:15:26;2.90;;;2.20;;
8665;SDS011;4370;48.916;8.380;2023-06-05T09:18:02;3.43;;;2.67;;
8665;SDS011;4370;48.916;8.380;2023-06-05T09:20:28;3.93;;;2.70;;
8665;SDS011;4370;48.916;8.380;2023-06-05T09:22:54;3.30;;;2.43;;
8665;SDS011;4370;48.916;8.380;2023-06-05T09:25:20;3.27;;;2.80;;
8665;SDS011;4370;48.916;8.380;2023-06-05T09:27:53;4.30;;;2.63;;
8665;SDS011;4370;48.916;8.380;2023-06-05T09:30:31;4.10;;;2.50;;
8665;SDS011;4370;48.916;8.380;2023-06-05T09:33:07;4.70;;;2.50;;
8665;SDS011;4370;48.916;8.380;2023-06-05T09:35:34;3.13;;;2.40;;
8665;SDS011;4370;48.916;8.380;2023-06-05T09:38:03;8.37;;;2.80;;
8665;SDS011;4370;48.916;8.380;2023-06-05T09:40:49;4.87;;;2.67;;
8665;SDS011;4370;48.916;8.380;2023-06-05T09:43:16;5.17;;;2.70;;
8665;SDS011;4370;48.916;8.380;2023-06-05T09:45:45;3.73;;;2.47;;
8665;SDS011;4370;48.916;8.380;2023-06-05T09:48:14;4.57;;;2.60;;
8665;SDS011;4370;48.916;8.380;2023-06-05T09:50:40;3.50;;;2.67;;
8665;SDS011;4370;48.916;8.380;2023-06-05T09:53:06;5.00;;;2.73;;
8665;SDS011;4370;48.916;8.380;2023-06-05T09:55:33;3.47;;;2.73;;
8665;SDS011;4370;48.916;8.380;2023-06-05T09:58:00;3.00;;;2.67;;
8665;SDS011;4370;48.916;8.380;2023-06-05T10:00:35;4.83;;;2.57;;
8665;SDS011;4370;48.916;8.380;2023-06-05T10:03:03;4.73;;;3.10;;
8665;SDS011;4370;48.916;8.380;2023-06-05T10:05:35;3.87;;;3.03;;
8665;SDS011;4370;48.916;8.380;2023-06-05T10:08:02;3.37;;;2.70;;
8665;SDS011;4370;48.916;8.380;2023-06-05T10:10:29;3.83;;;3.10;;
8665;SDS011;4370;48.916;8.380;2023-06-05T10:12:55;9.40;;;3.43;;
8665;SDS011;4370;48.916;8.380;2023-06-05T10:15:22;4.87;;;2.80;;
8665;SDS011;4370;48.916;8.380;2023-06-05T10:17:49;4.73;;;3.33;;
8665;SDS011;4370;48.916;8.380;2023-06-05T10:20:14;7.70;;;3.50;;
8665;SDS011;4370;48.916;8.380;2023-06-05T10:22:41;3.83;;;3.07;;
8665;SDS011;4370;48.916;8.380;2023-06-05T10:25:08;3.27;;;2.90;;
8665;SDS011;4370;48.916;8.380;2023-06-05T10:33:31;6.37;;;3.70;;
8665;SDS011;4370;48.916;8.380;2023-06-05T10:36:16;3.53;;;2.97;;
8665;SDS011;4370;48.916;8.380;2023-06-05T10:38:51;4.70;;;3.30;;
8665;SDS011;4370;48.916;8.380;2023-06-05T10:41:17;5.33;;;3.10;;
8665;SDS011;4370;48.916;8.380;2023-06-05T10:43:48;4.90;;;3.67;;
8665;SDS011;4370;48.916;8.380;2023-06-05T10:56:52;7.17;;;3.70;;
8665;SDS011;4370;48.916;8.380;2023-06-05T10:59:22;5.00;;;3.50;;
8665;SDS011;4370;48.916;8.380;2023-06-05T11:04:54;7.17;;;3.80;;
8665;SDS011;4370;48.916;8.380;2023-06-05T11:07:29;7.40;;;4.30;;
8665;SDS011;4370;48.916;8.380;2023-06-05T11:15:06;4.67;;;3.80;;
8665;SDS011;4370;48.916;8.380;2023-06-05T11:17:37;7.93;;;4.03;;
8665;SDS011;4370;48.916;8.380;2023-06-05T11:20:07;5.10;;;3.93;;
8665;SDS011;4370;48.916;8.380;2023-06-05T11:23:09;6.40;;;3.80;;
8665;SDS011;4370;48.916;8.380;2023-06-05T11:25:34;6.43;;;3.83;;
8665;SDS011;4370;48.916;8.380;2023-06-05T11:28:05;5.00;;;4.50;;
8665;SDS011;4370;48.916;8.380;2023-06-05T11:30:33;5.07;;;3.77;;
8665;SDS011;4370;48.916;8.380;2023-06-05T11:33:08;6.03;;;4.00;;
8665;SDS011;4370;48.916;8.380;2023-06-05T11:35:38;5.87;;;4.00;;
8665;SDS011;4370;48.916;8.380;2023-06-05T11:40:37;4.37;;;3.90;;
8665;SDS011;4370;48.916;8.380;2023-06-05T11:43:03;4.73;;;3.83;;
8665;SDS011;4370;48.916;8.380;2023-06-05T11:45:30;5.47;;;3.87;;
8665;SDS011;4370;48.916;8.380;2023-06-05T11:48:07;7.20;;;3.80;;
8665;SDS011;4370;48.916;8.380;2023-06-05T11:50:34;4.33;;;3.47;;
8665;SDS011;4370;48.916;8.380;2023-06-05T11:53:07;7.10;;;4.30;;
8665;SDS011;4370;48.916;8.380;2023-06-05T11:55:34;5.73;;;3.57;;
8665;SDS011;4370;48.916;8.380;2023-06-05T11:58:25;4.67;;;3.60;;
8665;SDS011;4370;48.916;8.380;2023-06-05T12:01:03;3.67;;;3.27;;
8665;SDS011;4370;48.916;8.380;2023-06-05T12:03:46;6.97;;;3.60;;
8665;SDS011;4370;48.916;8.380;2023-06-05T12:06:14;4.83;;;3.63;;
8665;SDS011;4370;48.916;8.380;2023-06-05T12:08:42;4.27;;;3.77;;
8665;SDS011;4370;48.916;8.380;2023-06-05T12:11:26;6.50;;;4.13;;
8665;SDS011;4370;48.916;8.380;2023-06-05T12:13:53;6.17;;;3.53;;
8665;SDS011;4370;48.916;8.380;2023-06-05T12:16:29;5.63;;;3.50;;
8665;SDS011;4370;48.916;8.380;2023-06-05T12:18:57;4.07;;;3.50;;
8665;SDS011;4370;48.916;8.380;2023-06-05T12:21:23;5.67;;;3.50;;
8665;SDS011;4370;48.916;8.380;2023-06-05T12:23:50;4.57;;;3.70;;
8665;SDS011;4370;48.916;8.380;2023-06-05T12:26:16;7.70;;;3.80;;
8665;SDS011;4370;48.916;8.380;2023-06-05T12:28:43;4.33;;;3.30;;
8665;SDS011;4370;48.916;8.380;2023-06-05T12:33:58;6.50;;;3.57;;
8665;SDS011;4370;48.916;8.380;2023-06-05T12:36:23;4.23;;;3.37;;
8665;SDS011;4370;48.916;8.380;2023-06-05T12:38:49;5.70;;;3.40;;
8665;SDS011;4370;48.916;8.380;2023-06-05T12:41:15;4.80;;;3.30;;
8665;SDS011;4370;48.916;8.380;2023-06-05T12:43:40;3.50;;;3.20;;
8665;SDS011;4370;48.916;8.380;2023-06-05T12:46:06;3.93;;;3.30;;
8665;SDS011;4370;48.916;8.380;2023-06-05T12:48:39;4.33;;;3.47;;
8665;SDS011;4370;48.916;8.380;2023-06-05T12:51:05;5.10;;;3.53;;
8665;SDS011;4370;48.916;8.380;2023-06-05T12:53:30;4.17;;;3.27;;
8665;SDS011;4370;48.916;8.380;2023-06-05T12:55:56;3.87;;;3.47;;
8665;SDS011;4370;48.916;8.380;2023-06-05T12:58:22;6.77;;;3.83;;
8665;SDS011;4370;48.916;8.380;2023-06-05T13:00:48;6.23;;;3.67;;
8665;SDS011;4370;48.916;8.380;2023-06-05T13:03:14;6.23;;;3.60;;
8665;SDS011;4370;48.916;8.380;2023-06-05T13:05:41;4.00;;;3.13;;
8665;SDS011;4370;48.916;8.380;2023-06-05T13:08:07;4.90;;;3.37;;
8665;SDS011;4370;48.916;8.380;2023-06-05T13:10:33;3.35;;;3.05;;
8665;SDS011;4370;48.916;8.380;2023-06-05T13:12:59;6.03;;;3.60;;
8665;SDS011;4370;48.916;8.380;2023-06-05T13:15:24;3.83;;;3.23;;
8665;SDS011;4370;48.916;8.380;2023-06-05T13:17:50;6.93;;;3.40;;
8665;SDS011;4370;48.916;8.380;2023-06-05T13:20:15;4.22;;;3.45;;
8665;SDS011;4370;48.916;8.380;2023-06-05T13:22:41;6.23;;;3.80;;
8665;SDS011;4370;48.916;8.380;2023-06-05T13:25:07;7.10;;;4.43;;
8665;SDS011;4370;48.916;8.380;2023-06-05T13:27:34;4.73;;;3.80;;
8665;SDS011;4370;48.916;8.380;2023-06-05T13:30:00;4.00;;;3.28;;
8665;SDS011;4370;48.916;8.380;2023-06-05T13:32:28;4.60;;;3.87;;
8665;SDS011;4370;48.916;8.380;2023-06-05T13:34:55;6.33;;;3.97;;
8665;SDS011;4370;48.916;8.380;2023-06-05T13:37:22;5.10;;;4.00;;
8665;SDS011;4370;48.916;8.380;2023-06-05T13:39:48;4.60;;;3.67;;
8665;SDS011;4370;48.916;8.380;2023-06-05T13:42:13;6.30;;;4.00;;
8665;SDS011;4370;48.916;8.380;2023-06-05T13:44:40;5.60;;;4.00;;
8665;SDS011;4370;48.916;8.380;2023-06-05T13:47:05;5.13;;;3.97;;
8665;SDS011;4370;48.916;8.380;2023-06-05T13:49:33;4.38;;;3.90;;
8665;SDS011;4370;48.916;8.380;2023-06-05T13:52:00;4.57;;;3.58;;
8665;SDS011;4370;48.916;8.380;2023-06-05T13:54:25;6.30;;;3.87;;
8665;SDS011;4370;48.916;8.380;2023-06-05T13:56:51;4.45;;;3.80;;
8665;SDS011;4370;48.916;8.380;2023-06-05T13:59:17;4.40;;;3.90;;
8665;SDS011;4370;48.916;8.380;2023-06-05T14:01:43;5.93;;;4.30;;
8665;SDS011;4370;48.916;8.380;2023-06-05T14:04:09;5.10;;;3.90;;
8665;SDS011;4370;48.916;8.380;2023-06-05T14:06:34;6.37;;;3.63;;
8665;SDS011;4370;48.916;8.380;2023-06-05T14:09:03;4.07;;;3.50;;
8665;SDS011;4370;48.916;8.380;2023-06-05T14:11:30;5.82;;;3.83;;
8665;SDS011;4370;48.916;8.380;2023-06-05T14:13:56;6.20;;;4.43;;
8665;SDS011;4370;48.916;8.380;2023-06-05T14:16:22;4.38;;;3.80;;
8665;SDS011;4370;48.916;8.380;2023-06-05T14:18:48;5.25;;;3.95;;
8665;SDS011;4370;48.916;8.380;2023-06-05T14:21:14;5.93;;;3.80;;
8665;SDS011;4370;48.916;8.380;2023-06-05T14:23:41;6.00;;;3.70;;
8665;SDS011;4370;48.916;8.380;2023-06-05T14:26:07;3.33;;;3.03;;
8665;SDS011;4370;48.916;8.380;2023-06-05T14:28:33;4.70;;;3.30;;
8665;SDS011;4370;48.916;8.380;2023-06-05T14:31:00;3.87;;;3.20;;
8665;SDS011;4370;48.916;8.380;2023-06-05T14:33:26;6.05;;;3.40;;
8665;SDS011;4370;48.916;8.380;2023-06-05T14:35:52;4.07;;;3.13;;
8665;SDS011;4370;48.916;8.380;2023-06-05T14:38:17;5.53;;;3.00;;
8665;SDS011;4370;48.916;8.380;2023-06-05T14:40:43;3.58;;;3.20;;
8665;SDS011;4370;48.916;8.380;2023-06-05T14:43:09;3.53;;;3.03;;
8665;SDS011;4370;48.916;8.380;2023-06-05T14:45:35;5.23;;;3.70;;
8665;SDS011;4370;48.916;8.380;2023-06-05T14:48:00;4.43;;;3.40;;
8665;SDS011;4370;48.916;8.380;2023-06-05T14:50:26;4.33;;;3.10;;
8665;SDS011;4370;48.916;8.380;2023-06-05T14:52:52;5.43;;;3.20;;
8665;SDS011;4370;48.916;8.380;2023-06-05T14:55:18;5.30;;;2.90;;
8665;SDS011;4370;48.916;8.380;2023-06-05T14:57:44;3.20;;;2.50;;
8665;SDS011;4370;48.916;8.380;2023-06-05T15:00:09;3.15;;;2.85;;
8665;SDS011;4370;48.916;8.380;2023-06-05T15:02:35;3.17;;;2.73;;
8665;SDS011;4370;48.916;8.380;2023-06-05T15:05:01;5.10;;;3.03;;
8665;SDS011;4370;48.916;8.380;2023-06-05T15:07:35;3.43;;;2.70;;
8665;SDS011;4370;48.916;8.380;2023-06-05T15:10:05;4.70;;;2.50;;
8665;SDS011;4370;48.916;8.380;2023-06-05T15:12:33;6.13;;;2.80;;
8665;SDS011;4370;48.916;8.380;2023-06-05T15:14:59;4.90;;;3.00;;
8665;SDS011;4370;48.916;8.380;2023-06-05T15:17:25;4.75;;;2.65;;
8665;SDS011;4370;48.916;8.380;2023-06-05T15:19:51;10.32;;;3.60;;
8665;SDS011;4370;48.916;8.380;2023-06-05T15:22:17;11.93;;;3.53;;
8665;SDS011;4370;48.916;8.380;2023-06-05T15:24:43;5.00;;;2.93;;
8665;SDS011;4370;48.916;8.380;2023-06-05T15:27:11;3.63;;;2.77;;
8665;SDS011;4370;48.916;8.380;2023-06-05T15:29:37;5.37;;;2.80;;
8665;SDS011;4370;48.916;8.380;2023-06-05T15:32:02;3.33;;;2.60;;
8665;SDS011;4370;48.916;8.380;2023-06-05T15:34:29;5.03;;;2.40;;
8665;SDS011;4370;48.916;8.380;2023-06-05T15:36:55;4.10;;;2.90;;
8665;SDS011;4370;48.916;8.380;2023-06-05T15:39:21;5.43;;;2.73;;
8665;SDS011;4370;48.916;8.380;2023-06-05T15:41:46;6.83;;;3.00;;
8665;SDS011;4370;48.916;8.380;2023-06-05T15:44:14;5.82;;;2.67;;
8665;SDS011;4370;48.916;8.380;2023-06-05T15:46:40;5.10;;;2.70;;
8665;SDS011;4370;48.916;8.380;2023-06-05T15:49:06;3.05;;;2.50;;
8665;SDS011;4370;48.916;8.380;2023-06-05T15:51:32;5.33;;;2.57;;
8665;SDS011;4370;48.916;8.380;2023-06-05T15:53:58;2.87;;;2.57;;